Terminal Aerodrome Forecast
Issued by NWS Tiyan, Guam

Home | Current Version | Previous Version | Text Only | Print | Product List | Glossary On
Versions: 1 2 3 4 5 6 7 8 9 10 11 12 13 14 15 16 17 18 19 20 21 22 23 24 25 26 27 28 29 30 31
000
FTPQ31 PGUM 221500 AAB
TAFPQ
TAF AMD
PGUM 221552Z 2216/2318 31009KT P6SM VCSH FEW016 SCT040 BKN100
      TEMPO 2216/2220 27011G18KT 4SM SHRA SCT014 BKN020=

USA.gov is the U.S. government's official web portal to all federal, state and local government web resources and services.